createdAt,value
2019-01-10T00:01:49.519Z,91.80
2019-01-10T00:04:20.124Z,91.50
2019-01-10T00:06:50.660Z,91.60
2019-01-10T00:09:21.113Z,91.60
2019-01-10T00:11:51.832Z,91.30
2019-01-10T00:14:22.287Z,91.50
2019-01-10T00:16:52.747Z,91.40
2019-01-10T00:19:23.167Z,91.40
2019-01-10T00:21:53.636Z,91.80
2019-01-10T00:24:24.135Z,91.80
2019-01-10T00:26:54.571Z,91.80
2019-01-10T00:29:25.019Z,91.20
2019-01-10T00:31:55.554Z,91.30
2019-01-10T00:34:26.029Z,91.30
2019-01-10T00:36:56.455Z,90.90
2019-01-10T00:39:26.883Z,91.30
2019-01-10T00:41:57.406Z,90.90
2019-01-10T00:44:27.853Z,90.60
2019-01-10T00:46:58.252Z,91.00
2019-01-10T00:49:28.675Z,90.70
2019-01-10T00:51:59.258Z,90.60
2019-01-10T00:54:29.654Z,90.00
2019-01-10T00:57:00.095Z,90.00
2019-01-10T00:59:30.545Z,89.60
2019-01-10T01:02:01.051Z,89.40
2019-01-10T01:04:31.446Z,90.20
2019-01-10T01:07:01.830Z,89.90
2019-01-10T01:09:32.331Z,89.30
2019-01-10T01:12:02.799Z,88.90
2019-01-10T01:14:33.639Z,89.80
2019-01-10T01:17:04.125Z,89.40
2019-01-10T01:19:34.529Z,89.50
2019-01-10T01:22:05.015Z,89.50
2019-01-10T01:24:35.442Z,88.70
2019-01-10T01:27:05.876Z,88.10
2019-01-10T01:29:36.300Z,89.30
2019-01-10T01:32:06.700Z,89.60
2019-01-10T01:34:37.152Z,89.60
2019-01-10T01:37:07.540Z,89.70
2019-01-10T01:39:37.986Z,89.50
2019-01-10T01:42:08.470Z,89.10
2019-01-10T01:44:38.960Z,89.00
2019-01-10T01:47:09.448Z,88.20
2019-01-10T01:49:39.878Z,86.50
2019-01-10T01:52:10.269Z,86.90
2019-01-10T01:54:40.688Z,87.00
2019-01-10T01:57:11.132Z,87.30
2019-01-10T01:59:41.688Z,87.70
2019-01-10T02:02:12.122Z,88.20
2019-01-10T02:04:42.573Z,87.30
2019-01-10T02:07:12.988Z,87.20
2019-01-10T02:09:43.470Z,87.10
2019-01-10T02:12:13.935Z,87.90
2019-01-10T02:14:44.334Z,87.80
2019-01-10T02:17:14.787Z,87.60
2019-01-10T02:19:45.197Z,88.10
2019-01-10T02:22:15.707Z,88.00
2019-01-10T02:24:46.112Z,88.80
2019-01-10T02:27:16.550Z,88.70
2019-01-10T02:29:46.987Z,89.50
2019-01-10T02:32:17.397Z,89.30
2019-01-10T02:34:47.836Z,88.50
2019-01-10T02:37:18.321Z,89.50
2019-01-10T02:39:48.769Z,89.00
2019-01-10T02:42:19.182Z,87.50
2019-01-10T02:44:49.630Z,88.30
2019-01-10T02:47:20.043Z,87.80
2019-01-10T02:49:50.572Z,88.60
2019-01-10T02:52:20.977Z,88.60
2019-01-10T02:54:51.415Z,88.40
2019-01-10T02:57:21.827Z,89.40
2019-01-10T02:59:52.517Z,89.50
2019-01-10T03:02:22.910Z,89.30
2019-01-10T03:04:53.421Z,90.50
2019-01-10T03:07:23.862Z,91.00
2019-01-10T03:09:54.266Z,91.50
2019-01-10T03:12:24.696Z,91.40
2019-01-10T03:14:55.114Z,91.40
2019-01-10T03:17:25.589Z,92.00
2019-01-10T03:19:56.012Z,91.40
2019-01-10T03:22:26.413Z,92.40
2019-01-10T03:24:56.809Z,92.00
2019-01-10T03:27:27.269Z,90.90
2019-01-10T03:29:57.677Z,91.60
2019-01-10T03:32:28.105Z,92.20
2019-01-10T03:34:58.528Z,92.10
2019-01-10T03:37:29.073Z,92.00
2019-01-10T03:39:59.487Z,92.30
2019-01-10T03:42:29.871Z,92.50
2019-01-10T03:45:00.273Z,93.30
2019-01-10T03:47:30.706Z,92.50
2019-01-10T03:50:01.366Z,92.70
2019-01-10T03:52:32.090Z,93.00
2019-01-10T03:55:02.558Z,93.00
2019-01-10T03:57:32.954Z,93.50
2019-01-10T04:00:03.372Z,93.20
2019-01-10T04:02:33.773Z,93.00
2019-01-10T04:05:04.497Z,92.60
2019-01-10T04:07:37.372Z,92.80
2019-01-10T04:10:08.454Z,93.20
2019-01-10T04:12:38.864Z,93.00
2019-01-10T04:15:10.922Z,93.20
2019-01-10T04:17:41.311Z,93.00
2019-01-10T04:20:13.771Z,93.00
2019-01-10T04:22:44.212Z,93.10
2019-01-10T04:25:15.555Z,93.20
2019-01-10T04:27:46.245Z,93.50
2019-01-10T04:30:20.132Z,93.40
2019-01-10T04:32:50.604Z,93.80
2019-01-10T04:35:21.031Z,93.90
2019-01-10T04:37:51.458Z,93.80
2019-01-10T04:40:22.839Z,93.70
2019-01-10T04:42:53.236Z,93.70
2019-01-10T04:45:23.628Z,93.50
2019-01-10T04:47:54.064Z,93.90
2019-01-10T04:50:24.517Z,93.70
2019-01-10T04:52:54.992Z,93.70
2019-01-10T04:55:25.427Z,93.70
2019-01-10T04:57:55.856Z,93.60
2019-01-10T05:00:27.221Z,93.30
2019-01-10T05:02:57.617Z,93.40
2019-01-10T05:05:28.036Z,93.40
2019-01-10T05:07:58.459Z,93.30
2019-01-10T05:10:28.909Z,93.60
2019-01-10T05:12:59.304Z,93.50
2019-01-10T05:15:29.742Z,93.40
2019-01-10T05:18:00.188Z,93.40
2019-01-10T05:20:30.646Z,93.50
2019-01-10T05:23:01.055Z,93.40
2019-01-10T05:25:31.492Z,93.90
2019-01-10T05:28:01.912Z,93.60
2019-01-10T05:30:32.315Z,93.40
2019-01-10T05:33:02.856Z,93.50
2019-01-10T05:35:33.282Z,93.60
2019-01-10T05:38:03.755Z,93.70
2019-01-10T05:40:34.139Z,93.70
2019-01-10T05:43:04.540Z,93.60
2019-01-10T05:45:34.992Z,93.60
2019-01-10T05:48:05.464Z,93.50
2019-01-10T05:50:35.867Z,93.20
2019-01-10T05:53:06.428Z,93.10
2019-01-10T05:55:36.841Z,93.30
2019-01-10T05:58:07.270Z,93.20
2019-01-10T06:00:39.042Z,92.90
2019-01-10T06:03:09.491Z,93.10
2019-01-10T06:05:39.923Z,93.10
2019-01-10T06:08:10.361Z,92.90
2019-01-10T06:10:40.785Z,92.90
2019-01-10T06:13:11.240Z,92.80
2019-01-10T06:15:41.735Z,92.60
2019-01-10T06:18:12.161Z,92.80
2019-01-10T06:20:42.597Z,92.80
2019-01-10T06:23:13.055Z,92.50
2019-01-10T06:25:43.444Z,92.60
2019-01-10T06:28:13.888Z,92.40
2019-01-10T06:30:44.309Z,92.40
2019-01-10T06:33:14.688Z,92.30
2019-01-10T06:35:45.098Z,92.50
2019-01-10T06:38:15.471Z,92.50
2019-01-10T06:40:46.499Z,92.60
2019-01-10T06:43:16.949Z,92.70
2019-01-10T06:45:47.376Z,92.60
2019-01-10T06:48:17.781Z,92.80
2019-01-10T06:50:48.221Z,92.90
2019-01-10T06:53:18.655Z,93.30
2019-01-10T06:55:49.096Z,93.40
2019-01-10T06:58:19.540Z,93.50
2019-01-10T07:00:50.064Z,93.80
2019-01-10T07:03:20.458Z,93.70
2019-01-10T07:05:51.109Z,93.80
2019-01-10T07:08:21.529Z,93.80
2019-01-10T07:10:51.990Z,94.00
2019-01-10T07:13:22.423Z,93.90
2019-01-10T07:15:52.825Z,94.10
2019-01-10T07:18:23.258Z,94.10
2019-01-10T07:20:53.681Z,94.20
2019-01-10T07:23:24.216Z,94.20
2019-01-10T07:25:57.292Z,94.20
2019-01-10T07:28:28.101Z,94.30
2019-01-10T07:31:03.445Z,94.30
2019-01-10T07:33:33.874Z,94.40
2019-01-10T07:36:04.555Z,94.30
2019-01-10T07:38:35.027Z,94.20
2019-01-10T07:41:05.432Z,94.00
2019-01-10T07:43:35.840Z,94.00
2019-01-10T07:46:07.971Z,94.10
2019-01-10T07:48:38.422Z,93.70
2019-01-10T07:51:08.933Z,93.60
2019-01-10T07:53:39.481Z,93.60
2019-01-10T07:56:09.900Z,93.30
2019-01-10T07:58:40.305Z,93.20
2019-01-10T08:01:10.740Z,93.00
2019-01-10T08:03:41.198Z,92.80
2019-01-10T08:06:11.619Z,92.50
2019-01-10T08:08:42.205Z,91.90
2019-01-10T08:11:12.645Z,91.30
2019-01-10T08:13:43.086Z,91.40
2019-01-10T08:16:13.512Z,91.40
2019-01-10T08:18:44.238Z,91.20
2019-01-10T08:21:14.651Z,90.60
2019-01-10T08:23:45.091Z,90.10
2019-01-10T08:26:15.549Z,88.40
2019-01-10T08:28:45.991Z,87.10
2019-01-10T08:31:16.461Z,86.00
2019-01-10T08:33:46.854Z,83.80
2019-01-10T08:36:17.344Z,81.80
2019-01-10T08:38:47.763Z,80.00
2019-01-10T08:41:18.216Z,78.90
2019-01-10T08:43:48.668Z,74.50
2019-01-10T08:46:19.079Z,70.50
2019-01-10T08:48:49.666Z,68.90
2019-01-10T08:51:20.153Z,67.20
2019-01-10T08:53:54.044Z,63.90
2019-01-10T08:56:22.925Z,64.50
2019-01-10T08:58:53.371Z,65.40
2019-01-10T09:01:24.707Z,65.90
2019-01-10T09:03:55.438Z,67.50
2019-01-10T09:06:25.950Z,68.90
2019-01-10T09:08:56.377Z,71.00
2019-01-10T09:11:26.878Z,70.90
2019-01-10T09:13:57.296Z,72.20
2019-01-10T09:16:27.746Z,72.50
2019-01-10T09:18:58.389Z,72.60
2019-01-10T09:21:28.961Z,73.20
2019-01-10T09:23:59.469Z,72.70
2019-01-10T09:26:37.605Z,72.10
2019-01-10T09:29:04.373Z,72.10
2019-01-10T09:31:37.038Z,72.40
2019-01-10T09:34:07.486Z,72.10
2019-01-10T09:36:37.927Z,71.50
2019-01-10T09:39:10.007Z,70.90
2019-01-10T09:41:40.457Z,69.40
2019-01-10T09:44:10.881Z,69.40
2019-01-10T09:46:41.317Z,69.10
2019-01-10T09:49:11.778Z,70.50
2019-01-10T09:51:42.241Z,69.30
2019-01-10T09:54:12.675Z,68.60
2019-01-10T09:56:43.123Z,68.90
2019-01-10T09:59:13.559Z,68.70
2019-01-10T10:01:44.062Z,68.20
2019-01-10T10:04:14.608Z,67.50
2019-01-10T10:06:45.068Z,67.00
2019-01-10T10:09:15.676Z,65.30
2019-01-10T10:11:46.117Z,65.90
2019-01-10T10:14:16.564Z,66.20
2019-01-10T10:16:47.017Z,67.40
2019-01-10T10:19:17.545Z,66.00
2019-01-10T10:21:47.991Z,64.40
2019-01-10T10:24:18.424Z,60.80
2019-01-10T10:26:48.867Z,59.20
2019-01-10T10:29:20.251Z,59.40
2019-01-10T10:31:50.742Z,59.10
2019-01-10T10:34:21.194Z,58.80
2019-01-10T10:36:51.623Z,60.00
2019-01-10T10:39:22.267Z,60.50
2019-01-10T10:41:52.771Z,61.20
2019-01-10T10:44:23.254Z,63.70
2019-01-10T10:46:53.707Z,63.00
2019-01-10T10:49:24.259Z,63.30
2019-01-10T10:51:54.938Z,64.20
2019-01-10T10:54:25.357Z,65.80
2019-01-10T10:56:55.841Z,65.00
2019-01-10T10:59:26.264Z,65.40
2019-01-10T11:01:56.693Z,65.10
2019-01-10T11:04:27.152Z,63.70
2019-01-10T11:06:57.610Z,63.90
2019-01-10T11:09:28.056Z,65.10
2019-01-10T11:11:58.636Z,64.30
2019-01-10T11:14:29.153Z,62.30
2019-01-10T11:16:59.547Z,63.00
2019-01-10T11:19:30.013Z,63.50
2019-01-10T11:22:00.417Z,62.90
2019-01-10T11:24:30.932Z,63.90
2019-01-10T11:27:01.361Z,63.40
2019-01-10T11:29:32.067Z,64.50
2019-01-10T11:32:02.508Z,64.50
2019-01-10T11:34:33.226Z,65.70
2019-01-10T11:37:03.663Z,64.00
2019-01-10T11:39:34.156Z,64.40
2019-01-10T11:42:04.935Z,64.00
2019-01-10T11:44:35.453Z,63.50
2019-01-10T11:47:06.021Z,63.70
2019-01-10T11:49:36.444Z,64.00
2019-01-10T11:52:06.957Z,64.70
2019-01-10T11:54:37.464Z,63.50
2019-01-10T11:57:07.901Z,63.90
2019-01-10T11:59:38.312Z,64.40
2019-01-10T12:02:08.749Z,64.00
2019-01-10T12:04:39.282Z,65.00
2019-01-10T12:07:09.716Z,64.40
2019-01-10T12:09:40.242Z,63.90
2019-01-10T12:12:10.738Z,63.60
2019-01-10T12:14:41.235Z,64.00
2019-01-10T12:17:11.664Z,62.70
2019-01-10T12:19:42.119Z,62.50
2019-01-10T12:22:12.570Z,63.20
2019-01-10T12:24:42.970Z,63.70
2019-01-10T12:27:13.359Z,64.00
2019-01-10T12:29:43.811Z,64.50
2019-01-10T12:32:14.662Z,64.80
2019-01-10T12:34:45.126Z,65.20
2019-01-10T12:37:15.566Z,64.60
2019-01-10T12:39:46.062Z,65.20
2019-01-10T12:42:16.504Z,65.40
2019-01-10T12:44:47.104Z,66.30
2019-01-10T12:47:17.541Z,65.90
2019-01-10T12:49:48.094Z,65.70
2019-01-10T12:52:18.560Z,65.80
2019-01-10T12:54:49.021Z,65.00
2019-01-10T12:57:19.453Z,65.00
2019-01-10T12:59:49.887Z,65.80
2019-01-10T13:02:20.350Z,65.20
2019-01-10T13:04:50.799Z,64.30
2019-01-10T13:07:21.264Z,65.30
2019-01-10T13:09:51.707Z,64.70
2019-01-10T13:12:22.130Z,64.50
2019-01-10T13:14:52.622Z,64.70
2019-01-10T13:17:23.075Z,62.70
2019-01-10T13:19:53.509Z,62.70
2019-01-10T13:22:24.249Z,63.10
2019-01-10T13:24:54.883Z,63.50
2019-01-10T13:27:25.488Z,63.90
2019-01-10T13:29:55.879Z,65.00
2019-01-10T13:32:26.323Z,65.30
2019-01-10T13:34:56.831Z,64.50
2019-01-10T13:37:27.247Z,63.90
2019-01-10T13:39:57.728Z,63.80
2019-01-10T13:42:28.181Z,62.10
2019-01-10T13:44:58.961Z,61.50
2019-01-10T13:47:29.366Z,62.50
2019-01-10T13:49:59.866Z,62.80
2019-01-10T13:52:30.337Z,61.70
2019-01-10T13:55:00.867Z,60.40
2019-01-10T13:57:31.346Z,60.50
2019-01-10T14:00:01.773Z,60.30
2019-01-10T14:02:32.207Z,60.80
2019-01-10T14:05:02.676Z,59.30
2019-01-10T14:07:33.498Z,59.20
2019-01-10T14:10:04.462Z,60.20
2019-01-10T14:12:34.853Z,60.50
2019-01-10T14:15:07.533Z,60.10
2019-01-10T14:17:37.984Z,59.60
2019-01-10T14:20:09.650Z,59.50
2019-01-10T14:22:40.163Z,59.10
2019-01-10T14:25:11.182Z,59.50
2019-01-10T14:27:41.866Z,59.70
2019-01-10T14:30:29.019Z,59.00
2019-01-10T14:32:59.471Z,59.60
2019-01-10T14:35:30.172Z,60.10
2019-01-10T14:38:00.640Z,61.30
2019-01-10T14:40:31.133Z,59.60
2019-01-10T14:43:01.647Z,59.80
2019-01-10T14:45:32.575Z,59.50
2019-01-10T14:48:03.064Z,59.20
2019-01-10T14:50:33.485Z,58.90
2019-01-10T14:53:04.000Z,58.60
2019-01-10T14:55:34.741Z,58.80
2019-01-10T14:58:05.310Z,59.00
2019-01-10T15:00:35.946Z,59.00
2019-01-10T15:03:06.543Z,58.90
2019-01-10T15:05:37.261Z,59.80
2019-01-10T15:08:07.952Z,59.50
2019-01-10T15:10:38.416Z,59.70
2019-01-10T15:13:09.117Z,59.90
2019-01-10T15:15:39.559Z,60.60
2019-01-10T15:18:10.016Z,60.60
2019-01-10T15:20:40.547Z,60.80
2019-01-10T15:23:10.972Z,60.60
2019-01-10T15:25:41.658Z,61.30
2019-01-10T15:28:12.171Z,61.10
2019-01-10T15:30:42.918Z,61.20
2019-01-10T15:33:13.343Z,61.60
2019-01-10T15:35:43.759Z,62.00
2019-01-10T15:38:14.402Z,62.50
2019-01-10T15:40:45.284Z,63.40
2019-01-10T15:43:15.691Z,63.20
2019-01-10T15:45:46.224Z,64.00
2019-01-10T15:48:16.666Z,64.60
2019-01-10T15:50:47.148Z,65.00
2019-01-10T15:53:17.577Z,66.00
2019-01-10T15:55:48.172Z,66.70
2019-01-10T15:58:18.816Z,65.60
2019-01-10T16:00:49.280Z,64.50
2019-01-10T16:03:19.713Z,65.30
2019-01-10T16:05:50.202Z,65.20
2019-01-10T16:08:20.671Z,65.60
2019-01-10T16:10:51.133Z,65.30
2019-01-10T16:13:21.702Z,66.50
2019-01-10T16:15:52.212Z,66.70
2019-01-10T16:18:22.726Z,66.60
2019-01-10T16:20:53.169Z,67.50
2019-01-10T16:23:23.705Z,65.60
2019-01-10T16:25:54.203Z,67.60
2019-01-10T16:28:24.667Z,68.20
2019-01-10T16:30:55.140Z,68.40
2019-01-10T16:33:25.583Z,68.10
2019-01-10T16:35:56.129Z,69.50
2019-01-10T16:38:26.649Z,70.40
2019-01-10T16:40:57.112Z,70.60
2019-01-10T16:43:27.610Z,72.20
2019-01-10T16:45:58.198Z,74.00
2019-01-10T16:48:28.655Z,74.40
2019-01-10T16:50:59.579Z,74.20
2019-01-10T16:53:30.074Z,74.30
2019-01-10T16:56:00.541Z,74.00
2019-01-10T16:58:31.027Z,74.20
2019-01-10T17:01:01.614Z,74.40
2019-01-10T17:03:32.165Z,74.90
2019-01-10T17:06:02.648Z,75.10
2019-01-10T17:08:33.106Z,74.70
2019-01-10T17:11:03.542Z,74.80
2019-01-10T17:13:33.971Z,75.20
2019-01-10T17:16:04.551Z,75.50
2019-01-10T17:18:34.948Z,75.50
2019-01-10T17:21:05.529Z,76.40
2019-01-10T17:23:35.978Z,76.30
2019-01-10T17:26:06.508Z,76.70
2019-01-10T17:28:37.000Z,76.80
2019-01-10T17:31:07.611Z,77.50
2019-01-10T17:33:38.091Z,77.70
2019-01-10T17:36:08.522Z,77.50
2019-01-10T17:38:39.052Z,77.80
2019-01-10T17:41:09.547Z,77.80
2019-01-10T17:43:39.993Z,79.20
2019-01-10T17:46:10.498Z,79.80
2019-01-10T17:48:40.941Z,79.70
2019-01-10T17:51:11.503Z,80.00
2019-01-10T17:53:41.956Z,80.40
2019-01-10T17:56:12.422Z,80.50
2019-01-10T17:58:44.898Z,81.10
2019-01-10T18:01:15.433Z,81.60
2019-01-10T18:03:45.918Z,81.80
2019-01-10T18:06:16.377Z,82.40
2019-01-10T18:08:46.925Z,82.50
2019-01-10T18:11:17.457Z,82.10
2019-01-10T18:13:47.983Z,82.00
2019-01-10T18:16:18.536Z,81.90
2019-01-10T18:18:48.995Z,82.20
2019-01-10T18:21:19.639Z,82.70
2019-01-10T18:23:50.286Z,82.60
2019-01-10T18:26:20.747Z,82.50
2019-01-10T18:28:51.251Z,82.20
2019-01-10T18:31:21.702Z,82.90
2019-01-10T18:33:52.204Z,83.10
2019-01-10T18:36:22.729Z,83.70
2019-01-10T18:38:53.220Z,84.10
2019-01-10T18:41:23.731Z,84.80
2019-01-10T18:43:54.276Z,85.20
2019-01-10T18:46:25.160Z,85.30
2019-01-10T18:48:56.046Z,85.70
2019-01-10T18:51:26.648Z,86.10
2019-01-10T18:53:57.095Z,87.10
2019-01-10T18:56:27.691Z,86.80
2019-01-10T18:58:58.149Z,86.90
2019-01-10T19:01:28.627Z,86.70
2019-01-10T19:03:59.169Z,87.00
2019-01-10T19:06:29.634Z,87.40
2019-01-10T19:09:00.125Z,87.50
2019-01-10T19:11:30.738Z,87.50
2019-01-10T19:14:01.326Z,87.90
2019-01-10T19:16:31.806Z,88.10
2019-01-10T19:19:02.414Z,88.60
2019-01-10T19:21:33.112Z,89.10
2019-01-10T19:24:03.917Z,89.30
2019-01-10T19:26:34.375Z,88.10
2019-01-10T19:29:04.883Z,88.60
2019-01-10T19:31:35.392Z,88.60
2019-01-10T19:34:05.978Z,88.70
2019-01-10T19:36:36.436Z,89.00
2019-01-10T19:39:09.326Z,88.70
2019-01-10T19:41:40.088Z,88.80
2019-01-10T19:44:10.603Z,88.50
2019-01-10T19:46:41.107Z,88.60
2019-01-10T19:49:11.748Z,88.40
2019-01-10T19:51:42.257Z,88.60
2019-01-10T19:54:12.775Z,88.60
2019-01-10T19:56:43.325Z,88.70
2019-01-10T19:59:15.689Z,88.60
2019-01-10T20:01:46.268Z,88.80
2019-01-10T20:04:16.850Z,88.90
2019-01-10T20:06:47.471Z,89.20
2019-01-10T20:09:18.035Z,89.30
2019-01-10T20:11:48.485Z,90.00
2019-01-10T20:14:18.913Z,89.30
2019-01-10T20:16:49.392Z,89.60
2019-01-10T20:19:19.846Z,89.60
2019-01-10T20:21:50.550Z,89.60
2019-01-10T20:24:21.084Z,89.60
2019-01-10T20:26:52.408Z,89.60
2019-01-10T20:29:23.427Z,89.40
2019-01-10T20:31:53.987Z,89.70
2019-01-10T20:34:24.516Z,89.80
2019-01-10T20:36:55.045Z,89.70
2019-01-10T20:39:25.615Z,89.70
2019-01-10T20:42:01.809Z,90.10
2019-01-10T20:44:28.580Z,90.20
2019-01-10T20:46:59.133Z,90.20
2019-01-10T20:49:29.614Z,90.20
2019-01-10T20:52:00.120Z,90.20
2019-01-10T20:54:30.581Z,90.10
2019-01-10T20:57:01.252Z,89.90
2019-01-10T20:59:31.838Z,90.10
2019-01-10T21:02:02.412Z,90.20
2019-01-10T21:04:33.024Z,90.10
2019-01-10T21:07:04.119Z,90.10
2019-01-10T21:09:34.586Z,90.10
2019-01-10T21:12:05.261Z,90.20
2019-01-10T21:14:37.309Z,90.40
2019-01-10T21:17:07.871Z,90.20
2019-01-10T21:19:38.338Z,90.00
2019-01-10T21:22:08.835Z,90.00
2019-01-10T21:24:39.326Z,90.10
2019-01-10T21:27:09.833Z,89.70
2019-01-10T21:29:40.442Z,89.30
2019-01-10T21:32:11.566Z,89.70
2019-01-10T21:34:42.422Z,89.80
2019-01-10T21:37:12.867Z,90.00
2019-01-10T21:39:44.294Z,90.10
2019-01-10T21:42:14.951Z,90.30
2019-01-10T21:44:45.566Z,90.20
2019-01-10T21:47:16.301Z,90.10
2019-01-10T21:49:46.942Z,90.10
2019-01-10T21:52:17.412Z,90.00
2019-01-10T21:54:48.349Z,89.80
2019-01-10T21:57:18.821Z,90.00
2019-01-10T21:59:49.270Z,89.90
2019-01-10T22:02:19.803Z,90.00
2019-01-10T22:04:50.334Z,89.90
2019-01-10T22:07:20.818Z,89.70
2019-01-10T22:09:51.263Z,89.80
2019-01-10T22:12:22.086Z,89.80
2019-01-10T22:14:52.754Z,90.00
2019-01-10T22:17:23.394Z,89.90
2019-01-10T22:19:53.883Z,89.30
2019-01-10T22:22:24.309Z,89.30
2019-01-10T22:24:54.840Z,89.60
2019-01-10T22:27:25.286Z,89.30
2019-01-10T22:29:55.834Z,90.20
2019-01-10T22:32:26.293Z,90.10
2019-01-10T22:34:57.006Z,90.40
2019-01-10T22:37:29.160Z,90.20
2019-01-10T22:39:59.709Z,90.10
2019-01-10T22:42:30.165Z,90.20
2019-01-10T22:45:01.054Z,90.10
2019-01-10T22:47:31.648Z,90.40
2019-01-10T22:50:02.268Z,90.00
2019-01-10T22:52:32.843Z,90.00
2019-01-10T22:55:03.433Z,90.10
2019-01-10T22:57:33.875Z,90.60
2019-01-10T23:00:06.461Z,90.30
2019-01-10T23:02:36.977Z,90.20
2019-01-10T23:05:08.006Z,90.00
2019-01-10T23:07:38.626Z,90.20
2019-01-10T23:10:12.016Z,90.20
2019-01-10T23:12:42.708Z,89.90
2019-01-10T23:15:32.236Z,90.00
2019-01-10T23:18:02.748Z,89.80
2019-01-10T23:20:33.154Z,89.90
2019-01-10T23:23:07.345Z,90.00
2019-01-10T23:25:37.819Z,90.20
2019-01-10T23:28:08.248Z,90.10
2019-01-10T23:30:54.026Z,90.20
2019-01-10T23:33:25.478Z,90.20
2019-01-10T23:36:01.519Z,90.20
2019-01-10T23:38:32.381Z,90.20
2019-01-10T23:41:03.258Z,90.40
2019-01-10T23:43:33.666Z,90.40
2019-01-10T23:46:04.301Z,90.40
2019-01-10T23:48:34.782Z,90.40
2019-01-10T23:51:05.238Z,90.30
2019-01-10T23:53:35.703Z,90.50
2019-01-10T23:56:06.371Z,90.40
2019-01-10T23:58:36.785Z,90.30
